sensor_id;sensor_type;location;lat;lon;timestamp;temperature;humidity
21563;DHT22;10942;47.894;11.424;2023-02-04T00:01:36;3.80;99.90
21563;DHT22;10942;47.894;11.424;2023-02-04T00:04:01;3.70;99.90
21563;DHT22;10942;47.894;11.424;2023-02-04T00:06:28;3.70;99.90
21563;DHT22;10942;47.894;11.424;2023-02-04T00:08:53;3.60;99.90
21563;DHT22;10942;47.894;11.424;2023-02-04T00:11:19;3.70;99.90
21563;DHT22;10942;47.894;11.424;2023-02-04T00:13:45;3.60;99.90
21563;DHT22;10942;47.894;11.424;2023-02-04T00:16:11;3.60;99.90
21563;DHT22;10942;47.894;11.424;2023-02-04T00:18:36;3.50;99.90
21563;DHT22;10942;47.894;11.424;2023-02-04T00:21:02;3.60;99.90
21563;DHT22;10942;47.894;11.424;2023-02-04T00:23:28;3.60;99.90
21563;DHT22;10942;47.894;11.424;2023-02-04T00:25:53;3.60;99.90
21563;DHT22;10942;47.894;11.424;2023-02-04T00:28:19;3.60;99.90
21563;DHT22;10942;47.894;11.424;2023-02-04T00:30:46;3.60;99.90
21563;DHT22;10942;47.894;11.424;2023-02-04T00:33:12;3.60;99.90
21563;DHT22;10942;47.894;11.424;2023-02-04T00:35:38;3.50;99.90
21563;DHT22;10942;47.894;11.424;2023-02-04T00:38:05;3.50;99.90
21563;DHT22;10942;47.894;11.424;2023-02-04T00:40:31;3.50;99.90
21563;DHT22;10942;47.894;11.424;2023-02-04T00:42:57;3.50;99.90
21563;DHT22;10942;47.894;11.424;2023-02-04T00:45:22;3.50;99.90
21563;DHT22;10942;47.894;11.424;2023-02-04T00:47:48;3.50;99.90
21563;DHT22;10942;47.894;11.424;2023-02-04T00:50:14;3.40;99.90
21563;DHT22;10942;47.894;11.424;2023-02-04T00:52:40;3.40;99.90
21563;DHT22;10942;47.894;11.424;2023-02-04T00:55:07;3.40;99.90
21563;DHT22;10942;47.894;11.424;2023-02-04T00:57:34;3.40;99.90
21563;DHT22;10942;47.894;11.424;2023-02-04T01:00:00;3.40;99.90
21563;DHT22;10942;47.894;11.424;2023-02-04T01:02:26;3.50;99.90
21563;DHT22;10942;47.894;11.424;2023-02-04T01:04:51;3.50;99.90
21563;DHT22;10942;47.894;11.424;2023-02-04T01:07:17;3.40;99.90
21563;DHT22;10942;47.894;11.424;2023-02-04T01:09:43;3.40;99.90
21563;DHT22;10942;47.894;11.424;2023-02-04T01:12:08;3.40;99.90
21563;DHT22;10942;47.894;11.424;2023-02-04T01:14:34;3.40;99.90
21563;DHT22;10942;47.894;11.424;2023-02-04T01:17:00;3.40;99.90
21563;DHT22;10942;47.894;11.424;2023-02-04T01:19:26;3.40;99.90
21563;DHT22;10942;47.894;11.424;2023-02-04T01:21:52;3.40;99.90
21563;DHT22;10942;47.894;11.424;2023-02-04T01:24:17;3.40;99.90
21563;DHT22;10942;47.894;11.424;2023-02-04T01:27:02;3.40;99.90
21563;DHT22;10942;47.894;11.424;2023-02-04T01:29:28;3.50;99.90
21563;DHT22;10942;47.894;11.424;2023-02-04T01:31:54;3.50;99.90
21563;DHT22;10942;47.894;11.424;2023-02-04T01:34:19;3.50;99.90
21563;DHT22;10942;47.894;11.424;2023-02-04T01:36:45;3.50;99.90
21563;DHT22;10942;47.894;11.424;2023-02-04T01:39:11;3.50;99.90
21563;DHT22;10942;47.894;11.424;2023-02-04T01:41:36;3.60;99.90
21563;DHT22;10942;47.894;11.424;2023-02-04T01:44:03;3.50;99.90
21563;DHT22;10942;47.894;11.424;2023-02-04T01:46:28;3.50;99.90
21563;DHT22;10942;47.894;11.424;2023-02-04T01:48:54;3.60;99.90
21563;DHT22;10942;47.894;11.424;2023-02-04T01:51:26;3.50;99.90
21563;DHT22;10942;47.894;11.424;2023-02-04T01:53:54;3.50;99.90
21563;DHT22;10942;47.894;11.424;2023-02-04T01:56:22;3.60;99.90
21563;DHT22;10942;47.894;11.424;2023-02-04T01:58:49;3.60;99.90
21563;DHT22;10942;47.894;11.424;2023-02-04T02:01:36;3.60;99.90
21563;DHT22;10942;47.894;11.424;2023-02-04T02:04:03;3.60;99.90
21563;DHT22;10942;47.894;11.424;2023-02-04T02:06:32;3.70;99.90
21563;DHT22;10942;47.894;11.424;2023-02-04T02:08:58;3.70;99.90
21563;DHT22;10942;47.894;11.424;2023-02-04T02:11:24;3.70;99.90
21563;DHT22;10942;47.894;11.424;2023-02-04T02:13:51;3.60;99.90
21563;DHT22;10942;47.894;11.424;2023-02-04T02:16:17;3.70;99.90
21563;DHT22;10942;47.894;11.424;2023-02-04T02:18:44;3.70;99.90
21563;DHT22;10942;47.894;11.424;2023-02-04T02:21:13;3.80;99.90
21563;DHT22;10942;47.894;11.424;2023-02-04T02:23:49;3.70;99.90
21563;DHT22;10942;47.894;11.424;2023-02-04T02:26:17;3.80;99.90
21563;DHT22;10942;47.894;11.424;2023-02-04T02:28:45;3.70;99.90
21563;DHT22;10942;47.894;11.424;2023-02-04T02:31:15;3.70;99.90
21563;DHT22;10942;47.894;11.424;2023-02-04T02:33:41;3.70;99.90
21563;DHT22;10942;47.894;11.424;2023-02-04T02:36:08;3.70;99.90
21563;DHT22;10942;47.894;11.424;2023-02-04T02:38:34;3.70;99.90
21563;DHT22;10942;47.894;11.424;2023-02-04T02:41:00;3.70;99.90
21563;DHT22;10942;47.894;11.424;2023-02-04T02:43:27;3.70;99.90
21563;DHT22;10942;47.894;11.424;2023-02-04T02:45:55;3.60;99.90
21563;DHT22;10942;47.894;11.424;2023-02-04T02:48:21;3.70;99.90
21563;DHT22;10942;47.894;11.424;2023-02-04T02:50:48;3.70;99.90
21563;DHT22;10942;47.894;11.424;2023-02-04T02:53:16;3.70;99.90
21563;DHT22;10942;47.894;11.424;2023-02-04T02:55:44;3.60;99.90
21563;DHT22;10942;47.894;11.424;2023-02-04T02:58:24;3.60;99.90
21563;DHT22;10942;47.894;11.424;2023-02-04T03:00:51;3.70;99.90
21563;DHT22;10942;47.894;11.424;2023-02-04T03:03:20;3.70;99.90
21563;DHT22;10942;47.894;11.424;2023-02-04T03:05:51;3.70;99.90
21563;DHT22;10942;47.894;11.424;2023-02-04T03:08:20;3.70;99.90
21563;DHT22;10942;47.894;11.424;2023-02-04T03:10:45;3.60;99.90
21563;DHT22;10942;47.894;11.424;2023-02-04T03:13:13;3.60;99.90
21563;DHT22;10942;47.894;11.424;2023-02-04T03:15:40;3.50;99.90
21563;DHT22;10942;47.894;11.424;2023-02-04T03:18:07;3.50;99.90
21563;DHT22;10942;47.894;11.424;2023-02-04T03:20:34;3.50;99.90
21563;DHT22;10942;47.894;11.424;2023-02-04T03:23:00;3.50;99.90
21563;DHT22;10942;47.894;11.424;2023-02-04T03:25:26;3.40;99.90
21563;DHT22;10942;47.894;11.424;2023-02-04T03:27:54;3.40;99.90
21563;DHT22;10942;47.894;11.424;2023-02-04T03:30:21;3.30;99.90
21563;DHT22;10942;47.894;11.424;2023-02-04T03:32:47;3.30;99.90
21563;DHT22;10942;47.894;11.424;2023-02-04T03:35:13;3.30;99.90
21563;DHT22;10942;47.894;11.424;2023-02-04T03:37:39;3.30;99.90
21563;DHT22;10942;47.894;11.424;2023-02-04T03:40:05;3.20;99.90
21563;DHT22;10942;47.894;11.424;2023-02-04T03:42:30;3.30;99.90
21563;DHT22;10942;47.894;11.424;2023-02-04T03:44:56;3.30;99.90
21563;DHT22;10942;47.894;11.424;2023-02-04T03:47:22;3.30;99.90
21563;DHT22;10942;47.894;11.424;2023-02-04T03:49:47;3.30;99.90
21563;DHT22;10942;47.894;11.424;2023-02-04T03:52:13;3.30;99.90
21563;DHT22;10942;47.894;11.424;2023-02-04T03:54:39;3.30;99.90
21563;DHT22;10942;47.894;11.424;2023-02-04T03:57:05;3.20;99.90
21563;DHT22;10942;47.894;11.424;2023-02-04T03:59:30;3.10;99.90
21563;DHT22;10942;47.894;11.424;2023-02-04T04:01:56;3.10;99.90
21563;DHT22;10942;47.894;11.424;2023-02-04T04:04:22;3.00;99.90
21563;DHT22;10942;47.894;11.424;2023-02-04T04:06:48;3.00;99.90
21563;DHT22;10942;47.894;11.424;2023-02-04T04:09:14;3.00;99.90
21563;DHT22;10942;47.894;11.424;2023-02-04T04:11:39;2.90;99.90
21563;DHT22;10942;47.894;11.424;2023-02-04T04:14:05;2.90;99.90
21563;DHT22;10942;47.894;11.424;2023-02-04T04:16:31;3.00;99.90
21563;DHT22;10942;47.894;11.424;2023-02-04T04:18:56;3.00;99.90
21563;DHT22;10942;47.894;11.424;2023-02-04T04:21:22;3.00;99.90
21563;DHT22;10942;47.894;11.424;2023-02-04T04:23:48;3.00;99.90
21563;DHT22;10942;47.894;11.424;2023-02-04T04:26:14;3.00;99.90
21563;DHT22;10942;47.894;11.424;2023-02-04T04:28:39;3.10;99.90
21563;DHT22;10942;47.894;11.424;2023-02-04T04:31:05;3.20;99.90
21563;DHT22;10942;47.894;11.424;2023-02-04T04:33:31;3.20;99.90
21563;DHT22;10942;47.894;11.424;2023-02-04T04:35:56;3.20;99.90
21563;DHT22;10942;47.894;11.424;2023-02-04T04:38:22;3.20;99.90
21563;DHT22;10942;47.894;11.424;2023-02-04T04:40:48;3.20;99.90
21563;DHT22;10942;47.894;11.424;2023-02-04T04:43:14;3.30;99.90
21563;DHT22;10942;47.894;11.424;2023-02-04T04:45:40;3.30;99.90
21563;DHT22;10942;47.894;11.424;2023-02-04T04:48:05;3.30;99.90
21563;DHT22;10942;47.894;11.424;2023-02-04T04:50:31;3.30;99.90
21563;DHT22;10942;47.894;11.424;2023-02-04T04:52:57;3.40;99.90
21563;DHT22;10942;47.894;11.424;2023-02-04T04:55:22;3.40;99.90
21563;DHT22;10942;47.894;11.424;2023-02-04T04:57:48;3.40;99.90
21563;DHT22;10942;47.894;11.424;2023-02-04T05:00:18;3.50;99.90
21563;DHT22;10942;47.894;11.424;2023-02-04T05:02:44;3.50;99.90
21563;DHT22;10942;47.894;11.424;2023-02-04T05:05:10;3.50;99.90
21563;DHT22;10942;47.894;11.424;2023-02-04T05:07:36;3.60;99.90
21563;DHT22;10942;47.894;11.424;2023-02-04T05:10:03;3.60;99.90
21563;DHT22;10942;47.894;11.424;2023-02-04T05:12:29;3.60;99.90
21563;DHT22;10942;47.894;11.424;2023-02-04T05:14:55;3.60;99.90
21563;DHT22;10942;47.894;11.424;2023-02-04T05:17:20;3.60;99.90
21563;DHT22;10942;47.894;11.424;2023-02-04T05:19:46;3.70;99.90
21563;DHT22;10942;47.894;11.424;2023-02-04T05:22:12;3.70;99.90
21563;DHT22;10942;47.894;11.424;2023-02-04T05:24:37;3.70;99.90
21563;DHT22;10942;47.894;11.424;2023-02-04T05:27:03;3.70;99.90
21563;DHT22;10942;47.894;11.424;2023-02-04T05:29:29;3.70;99.90
21563;DHT22;10942;47.894;11.424;2023-02-04T05:31:55;3.70;99.90
21563;DHT22;10942;47.894;11.424;2023-02-04T05:34:20;3.70;99.90
21563;DHT22;10942;47.894;11.424;2023-02-04T05:36:46;3.70;99.90
21563;DHT22;10942;47.894;11.424;2023-02-04T05:39:12;3.70;99.90
21563;DHT22;10942;47.894;11.424;2023-02-04T05:41:37;3.70;99.90
21563;DHT22;10942;47.894;11.424;2023-02-04T05:44:04;3.70;99.90
21563;DHT22;10942;47.894;11.424;2023-02-04T05:46:30;3.70;99.90
21563;DHT22;10942;47.894;11.424;2023-02-04T05:48:55;3.70;99.90
21563;DHT22;10942;47.894;11.424;2023-02-04T05:51:21;3.70;99.90
21563;DHT22;10942;47.894;11.424;2023-02-04T05:53:47;3.70;99.90
21563;DHT22;10942;47.894;11.424;2023-02-04T05:56:12;3.60;99.90
21563;DHT22;10942;47.894;11.424;2023-02-04T05:58:38;3.50;99.90
21563;DHT22;10942;47.894;11.424;2023-02-04T06:01:04;3.50;99.90
21563;DHT22;10942;47.894;11.424;2023-02-04T06:03:30;3.60;99.90
21563;DHT22;10942;47.894;11.424;2023-02-04T06:05:57;3.50;99.90
21563;DHT22;10942;47.894;11.424;2023-02-04T06:08:23;3.50;99.90
21563;DHT22;10942;47.894;11.424;2023-02-04T06:10:49;3.50;99.90
21563;DHT22;10942;47.894;11.424;2023-02-04T06:13:14;3.40;99.90
21563;DHT22;10942;47.894;11.424;2023-02-04T06:15:40;3.40;99.90
21563;DHT22;10942;47.894;11.424;2023-02-04T06:18:06;3.50;99.90
21563;DHT22;10942;47.894;11.424;2023-02-04T06:20:32;3.50;99.90
21563;DHT22;10942;47.894;11.424;2023-02-04T06:22:58;3.50;99.90
21563;DHT22;10942;47.894;11.424;2023-02-04T06:25:24;3.50;99.90
21563;DHT22;10942;47.894;11.424;2023-02-04T06:27:49;3.50;99.90
21563;DHT22;10942;47.894;11.424;2023-02-04T06:30:16;3.50;99.90
21563;DHT22;10942;47.894;11.424;2023-02-04T06:32:42;3.50;99.90
21563;DHT22;10942;47.894;11.424;2023-02-04T06:35:08;3.60;99.90
21563;DHT22;10942;47.894;11.424;2023-02-04T06:37:34;3.60;99.90
21563;DHT22;10942;47.894;11.424;2023-02-04T06:40:00;3.60;99.90
21563;DHT22;10942;47.894;11.424;2023-02-04T06:42:25;3.60;99.90
21563;DHT22;10942;47.894;11.424;2023-02-04T06:44:52;3.60;99.90
21563;DHT22;10942;47.894;11.424;2023-02-04T06:47:18;3.60;99.90
21563;DHT22;10942;47.894;11.424;2023-02-04T06:49:44;3.60;99.90
21563;DHT22;10942;47.894;11.424;2023-02-04T06:52:10;3.60;99.90
21563;DHT22;10942;47.894;11.424;2023-02-04T06:54:36;3.60;99.90
21563;DHT22;10942;47.894;11.424;2023-02-04T06:57:02;3.60;99.90
21563;DHT22;10942;47.894;11.424;2023-02-04T06:59:40;3.60;99.90
21563;DHT22;10942;47.894;11.424;2023-02-04T07:02:09;3.60;99.90
21563;DHT22;10942;47.894;11.424;2023-02-04T07:04:35;3.60;99.90
21563;DHT22;10942;47.894;11.424;2023-02-04T07:07:01;3.60;99.90
21563;DHT22;10942;47.894;11.424;2023-02-04T07:09:27;3.70;99.90
21563;DHT22;10942;47.894;11.424;2023-02-04T07:11:52;3.70;99.90
21563;DHT22;10942;47.894;11.424;2023-02-04T07:14:19;3.70;99.90
21563;DHT22;10942;47.894;11.424;2023-02-04T07:16:44;3.70;99.90
21563;DHT22;10942;47.894;11.424;2023-02-04T07:19:10;3.60;99.90
21563;DHT22;10942;47.894;11.424;2023-02-04T07:21:36;3.70;99.90
21563;DHT22;10942;47.894;11.424;2023-02-04T07:24:02;3.70;99.90
21563;DHT22;10942;47.894;11.424;2023-02-04T07:26:27;3.60;99.90
21563;DHT22;10942;47.894;11.424;2023-02-04T07:28:53;3.60;99.90
21563;DHT22;10942;47.894;11.424;2023-02-04T07:31:19;3.70;99.90
21563;DHT22;10942;47.894;11.424;2023-02-04T07:33:45;3.70;99.90
21563;DHT22;10942;47.894;11.424;2023-02-04T07:36:10;3.80;99.90
21563;DHT22;10942;47.894;11.424;2023-02-04T07:38:36;3.90;99.90
21563;DHT22;10942;47.894;11.424;2023-02-04T07:41:02;3.80;99.90
21563;DHT22;10942;47.894;11.424;2023-02-04T07:43:27;3.90;99.90
21563;DHT22;10942;47.894;11.424;2023-02-04T07:45:53;3.70;99.90
21563;DHT22;10942;47.894;11.424;2023-02-04T07:48:19;3.70;99.90
21563;DHT22;10942;47.894;11.424;2023-02-04T07:50:44;3.70;99.90
21563;DHT22;10942;47.894;11.424;2023-02-04T07:53:10;3.70;99.90
21563;DHT22;10942;47.894;11.424;2023-02-04T07:55:36;3.80;99.90
21563;DHT22;10942;47.894;11.424;2023-02-04T07:58:02;3.80;99.90
21563;DHT22;10942;47.894;11.424;2023-02-04T08:00:28;3.80;99.90
21563;DHT22;10942;47.894;11.424;2023-02-04T08:02:54;3.80;99.90
21563;DHT22;10942;47.894;11.424;2023-02-04T08:05:19;3.80;99.90
21563;DHT22;10942;47.894;11.424;2023-02-04T08:07:45;3.90;99.90
21563;DHT22;10942;47.894;11.424;2023-02-04T08:10:11;3.90;99.90
21563;DHT22;10942;47.894;11.424;2023-02-04T08:12:37;3.90;99.90
21563;DHT22;10942;47.894;11.424;2023-02-04T08:15:03;4.10;99.90
21563;DHT22;10942;47.894;11.424;2023-02-04T08:17:29;4.10;99.90
21563;DHT22;10942;47.894;11.424;2023-02-04T08:19:55;4.20;99.90
21563;DHT22;10942;47.894;11.424;2023-02-04T08:22:21;4.20;99.90
21563;DHT22;10942;47.894;11.424;2023-02-04T08:24:47;4.10;99.90
21563;DHT22;10942;47.894;11.424;2023-02-04T08:27:13;4.30;99.90
21563;DHT22;10942;47.894;11.424;2023-02-04T08:29:38;4.30;99.90
21563;DHT22;10942;47.894;11.424;2023-02-04T08:32:04;4.20;99.90
21563;DHT22;10942;47.894;11.424;2023-02-04T08:34:30;4.20;99.90
21563;DHT22;10942;47.894;11.424;2023-02-04T08:36:56;4.20;99.90
21563;DHT22;10942;47.894;11.424;2023-02-04T08:39:21;4.20;99.90
21563;DHT22;10942;47.894;11.424;2023-02-04T08:41:47;4.20;99.90
21563;DHT22;10942;47.894;11.424;2023-02-04T08:44:14;4.30;99.90
21563;DHT22;10942;47.894;11.424;2023-02-04T08:46:40;4.30;99.90
21563;DHT22;10942;47.894;11.424;2023-02-04T08:49:05;4.40;99.90
21563;DHT22;10942;47.894;11.424;2023-02-04T08:51:31;4.40;99.90
21563;DHT22;10942;47.894;11.424;2023-02-04T08:53:57;4.60;99.90
21563;DHT22;10942;47.894;11.424;2023-02-04T08:56:23;4.60;99.90
21563;DHT22;10942;47.894;11.424;2023-02-04T08:58:48;4.60;99.90
21563;DHT22;10942;47.894;11.424;2023-02-04T09:01:14;4.70;99.90
21563;DHT22;10942;47.894;11.424;2023-02-04T09:03:40;4.80;99.90
21563;DHT22;10942;47.894;11.424;2023-02-04T09:06:06;4.70;99.90
21563;DHT22;10942;47.894;11.424;2023-02-04T09:08:32;4.80;99.90
21563;DHT22;10942;47.894;11.424;2023-02-04T09:10:58;4.80;99.90
21563;DHT22;10942;47.894;11.424;2023-02-04T09:13:24;4.90;99.90
21563;DHT22;10942;47.894;11.424;2023-02-04T09:15:49;4.80;99.90
21563;DHT22;10942;47.894;11.424;2023-02-04T09:18:17;4.80;99.90
21563;DHT22;10942;47.894;11.424;2023-02-04T09:20:47;4.70;99.90
21563;DHT22;10942;47.894;11.424;2023-02-04T09:23:14;4.80;99.90
21563;DHT22;10942;47.894;11.424;2023-02-04T09:25:40;4.80;99.90
21563;DHT22;10942;47.894;11.424;2023-02-04T09:28:07;4.90;99.90
21563;DHT22;10942;47.894;11.424;2023-02-04T09:30:41;4.90;99.90
21563;DHT22;10942;47.894;11.424;2023-02-04T09:33:08;4.90;99.90
21563;DHT22;10942;47.894;11.424;2023-02-04T09:35:34;5.00;99.90
21563;DHT22;10942;47.894;11.424;2023-02-04T09:38:00;4.90;99.90
21563;DHT22;10942;47.894;11.424;2023-02-04T09:40:28;5.00;99.90
21563;DHT22;10942;47.894;11.424;2023-02-04T09:42:55;5.00;99.90
21563;DHT22;10942;47.894;11.424;2023-02-04T09:45:23;4.90;99.90
21563;DHT22;10942;47.894;11.424;2023-02-04T09:47:51;4.90;99.90
21563;DHT22;10942;47.894;11.424;2023-02-04T09:50:20;5.00;99.90
21563;DHT22;10942;47.894;11.424;2023-02-04T09:52:48;5.10;99.90
21563;DHT22;10942;47.894;11.424;2023-02-04T09:55:17;5.10;99.90
21563;DHT22;10942;47.894;11.424;2023-02-04T09:57:44;5.00;99.90
21563;DHT22;10942;47.894;11.424;2023-02-04T10:00:24;5.20;99.90
21563;DHT22;10942;47.894;11.424;2023-02-04T10:02:50;5.40;99.90
21563;DHT22;10942;47.894;11.424;2023-02-04T10:05:25;5.40;99.90
21563;DHT22;10942;47.894;11.424;2023-02-04T10:07:52;5.40;99.90
21563;DHT22;10942;47.894;11.424;2023-02-04T10:10:20;5.40;99.90
21563;DHT22;10942;47.894;11.424;2023-02-04T10:12:49;5.40;99.90
21563;DHT22;10942;47.894;11.424;2023-02-04T10:15:17;5.30;99.90
21563;DHT22;10942;47.894;11.424;2023-02-04T10:17:48;5.40;99.90
21563;DHT22;10942;47.894;11.424;2023-02-04T10:20:18;5.30;99.90
21563;DHT22;10942;47.894;11.424;2023-02-04T10:22:45;5.20;99.90
21563;DHT22;10942;47.894;11.424;2023-02-04T10:25:19;5.20;99.90
21563;DHT22;10942;47.894;11.424;2023-02-04T10:27:51;5.20;99.90
21563;DHT22;10942;47.894;11.424;2023-02-04T10:30:21;5.20;99.90
21563;DHT22;10942;47.894;11.424;2023-02-04T10:32:47;5.30;99.90
21563;DHT22;10942;47.894;11.424;2023-02-04T10:35:15;5.60;99.90
21563;DHT22;10942;47.894;11.424;2023-02-04T10:37:41;5.70;99.90
21563;DHT22;10942;47.894;11.424;2023-02-04T10:42:52;5.80;99.90
21563;DHT22;10942;47.894;11.424;2023-02-04T10:45:29;5.90;99.90
21563;DHT22;10942;47.894;11.424;2023-02-04T10:47:56;5.70;99.90
21563;DHT22;10942;47.894;11.424;2023-02-04T10:50:24;5.60;99.90
21563;DHT22;10942;47.894;11.424;2023-02-04T10:52:52;5.50;99.90
21563;DHT22;10942;47.894;11.424;2023-02-04T10:55:21;5.40;99.90
21563;DHT22;10942;47.894;11.424;2023-02-04T10:57:50;5.30;99.90
21563;DHT22;10942;47.894;11.424;2023-02-04T11:00:22;5.30;99.90
21563;DHT22;10942;47.894;11.424;2023-02-04T11:05:55;5.20;99.90
21563;DHT22;10942;47.894;11.424;2023-02-04T11:08:25;5.30;99.90
21563;DHT22;10942;47.894;11.424;2023-02-04T11:10:58;5.30;99.90
21563;DHT22;10942;47.894;11.424;2023-02-04T11:21:25;5.30;99.90
21563;DHT22;10942;47.894;11.424;2023-02-04T11:26:35;5.40;99.90
21563;DHT22;10942;47.894;11.424;2023-02-04T11:31:38;5.50;99.90
21563;DHT22;10942;47.894;11.424;2023-02-04T11:39:22;5.60;99.90
21563;DHT22;10942;47.894;11.424;2023-02-04T11:41:51;5.60;99.90
21563;DHT22;10942;47.894;11.424;2023-02-04T11:44:17;5.60;99.90
21563;DHT22;10942;47.894;11.424;2023-02-04T11:46:49;5.60;99.90
21563;DHT22;10942;47.894;11.424;2023-02-04T11:49:17;5.70;99.90
21563;DHT22;10942;47.894;11.424;2023-02-04T11:51:43;5.80;99.90
21563;DHT22;10942;47.894;11.424;2023-02-04T11:54:13;5.80;99.90
21563;DHT22;10942;47.894;11.424;2023-02-04T11:56:41;5.90;99.90
21563;DHT22;10942;47.894;11.424;2023-02-04T11:59:08;5.90;99.90
21563;DHT22;10942;47.894;11.424;2023-02-04T12:01:35;5.80;99.90
21563;DHT22;10942;47.894;11.424;2023-02-04T12:04:03;5.80;99.90
21563;DHT22;10942;47.894;11.424;2023-02-04T12:06:32;5.70;99.90
21563;DHT22;10942;47.894;11.424;2023-02-04T12:11:54;5.60;99.90
21563;DHT22;10942;47.894;11.424;2023-02-04T12:14:20;5.60;99.90
21563;DHT22;10942;47.894;11.424;2023-02-04T12:16:50;5.50;99.90
21563;DHT22;10942;47.894;11.424;2023-02-04T12:19:16;5.50;99.90
21563;DHT22;10942;47.894;11.424;2023-02-04T12:21:42;5.50;99.90
21563;DHT22;10942;47.894;11.424;2023-02-04T12:24:08;5.60;99.90
21563;DHT22;10942;47.894;11.424;2023-02-04T12:26:33;5.60;99.90
21563;DHT22;10942;47.894;11.424;2023-02-04T12:28:59;5.60;99.90
21563;DHT22;10942;47.894;11.424;2023-02-04T12:31:28;5.70;99.90
21563;DHT22;10942;47.894;11.424;2023-02-04T12:33:54;5.70;99.90
21563;DHT22;10942;47.894;11.424;2023-02-04T12:36:20;5.70;99.90
21563;DHT22;10942;47.894;11.424;2023-02-04T12:38:46;5.80;99.90
21563;DHT22;10942;47.894;11.424;2023-02-04T12:41:11;5.80;99.90
21563;DHT22;10942;47.894;11.424;2023-02-04T12:43:37;5.90;99.90
21563;DHT22;10942;47.894;11.424;2023-02-04T12:46:03;5.90;99.90
21563;DHT22;10942;47.894;11.424;2023-02-04T12:48:29;6.00;99.90
21563;DHT22;10942;47.894;11.424;2023-02-04T12:50:55;6.00;99.90
21563;DHT22;10942;47.894;11.424;2023-02-04T12:53:20;6.00;99.90
21563;DHT22;10942;47.894;11.424;2023-02-04T12:55:47;6.10;99.90
21563;DHT22;10942;47.894;11.424;2023-02-04T12:58:13;6.10;99.90
21563;DHT22;10942;47.894;11.424;2023-02-04T13:00:39;6.10;99.90
21563;DHT22;10942;47.894;11.424;2023-02-04T13:03:04;6.20;99.90
21563;DHT22;10942;47.894;11.424;2023-02-04T13:05:30;6.30;99.90
21563;DHT22;10942;47.894;11.424;2023-02-04T13:07:56;6.40;99.90
21563;DHT22;10942;47.894;11.424;2023-02-04T13:10:22;6.40;99.90
21563;DHT22;10942;47.894;11.424;2023-02-04T13:12:49;6.40;99.90
21563;DHT22;10942;47.894;11.424;2023-02-04T13:15:15;6.40;99.90
21563;DHT22;10942;47.894;11.424;2023-02-04T13:17:41;6.40;99.90
21563;DHT22;10942;47.894;11.424;2023-02-04T13:20:07;6.40;99.90
21563;DHT22;10942;47.894;11.424;2023-02-04T13:22:33;6.40;99.90
21563;DHT22;10942;47.894;11.424;2023-02-04T13:24:59;6.30;99.90
21563;DHT22;10942;47.894;11.424;2023-02-04T13:27:25;6.20;99.90
21563;DHT22;10942;47.894;11.424;2023-02-04T13:29:52;6.00;99.90
21563;DHT22;10942;47.894;11.424;2023-02-04T13:32:18;5.90;99.90
21563;DHT22;10942;47.894;11.424;2023-02-04T13:34:44;5.70;99.90
21563;DHT22;10942;47.894;11.424;2023-02-04T13:37:10;5.50;99.90
21563;DHT22;10942;47.894;11.424;2023-02-04T13:39:35;5.50;99.90
21563;DHT22;10942;47.894;11.424;2023-02-04T13:42:01;5.30;99.90
21563;DHT22;10942;47.894;11.424;2023-02-04T13:44:27;5.20;99.90
21563;DHT22;10942;47.894;11.424;2023-02-04T13:46:52;5.00;99.90
21563;DHT22;10942;47.894;11.424;2023-02-04T13:49:18;5.00;99.90
21563;DHT22;10942;47.894;11.424;2023-02-04T13:51:46;5.00;99.90
21563;DHT22;10942;47.894;11.424;2023-02-04T13:54:12;5.00;99.90
21563;DHT22;10942;47.894;11.424;2023-02-04T13:56:37;5.00;99.90
21563;DHT22;10942;47.894;11.424;2023-02-04T13:59:05;5.10;99.90
21563;DHT22;10942;47.894;11.424;2023-02-04T14:01:31;5.00;99.90
21563;DHT22;10942;47.894;11.424;2023-02-04T14:03:57;5.00;99.90
21563;DHT22;10942;47.894;11.424;2023-02-04T14:06:23;5.10;99.90
21563;DHT22;10942;47.894;11.424;2023-02-04T14:08:58;5.10;99.90
21563;DHT22;10942;47.894;11.424;2023-02-04T14:11:23;5.10;99.90
21563;DHT22;10942;47.894;11.424;2023-02-04T14:13:49;5.00;99.90
21563;DHT22;10942;47.894;11.424;2023-02-04T14:16:15;5.00;99.90
21563;DHT22;10942;47.894;11.424;2023-02-04T14:18:41;5.00;99.90
21563;DHT22;10942;47.894;11.424;2023-02-04T14:21:06;5.00;99.90
21563;DHT22;10942;47.894;11.424;2023-02-04T14:23:32;5.00;99.90
21563;DHT22;10942;47.894;11.424;2023-02-04T14:25:58;4.90;99.90
21563;DHT22;10942;47.894;11.424;2023-02-04T14:28:23;4.90;99.90
21563;DHT22;10942;47.894;11.424;2023-02-04T14:30:49;4.90;99.90
21563;DHT22;10942;47.894;11.424;2023-02-04T14:33:15;4.80;99.90
21563;DHT22;10942;47.894;11.424;2023-02-04T14:38:08;4.80;99.90
21563;DHT22;10942;47.894;11.424;2023-02-04T14:40:36;4.90;99.90
21563;DHT22;10942;47.894;11.424;2023-02-04T14:43:01;5.00;99.90
21563;DHT22;10942;47.894;11.424;2023-02-04T14:45:27;4.90;99.90
21563;DHT22;10942;47.894;11.424;2023-02-04T14:47:53;4.90;99.90
21563;DHT22;10942;47.894;11.424;2023-02-04T14:50:21;4.90;99.90
21563;DHT22;10942;47.894;11.424;2023-02-04T14:52:52;4.90;99.90
21563;DHT22;10942;47.894;11.424;2023-02-04T14:55:18;5.00;99.90
21563;DHT22;10942;47.894;11.424;2023-02-04T14:57:43;4.90;99.90
21563;DHT22;10942;47.894;11.424;2023-02-04T15:00:10;4.90;99.90
21563;DHT22;10942;47.894;11.424;2023-02-04T15:02:36;4.80;99.90
21563;DHT22;10942;47.894;11.424;2023-02-04T15:05:02;4.80;99.90
21563;DHT22;10942;47.894;11.424;2023-02-04T15:07:28;4.70;99.90
21563;DHT22;10942;47.894;11.424;2023-02-04T15:09:53;4.70;99.90
21563;DHT22;10942;47.894;11.424;2023-02-04T15:12:19;4.60;99.90
21563;DHT22;10942;47.894;11.424;2023-02-04T15:14:45;4.60;99.90
21563;DHT22;10942;47.894;11.424;2023-02-04T15:17:11;4.60;99.90
21563;DHT22;10942;47.894;11.424;2023-02-04T15:19:37;4.50;99.90
21563;DHT22;10942;47.894;11.424;2023-02-04T15:22:02;4.50;99.90
21563;DHT22;10942;47.894;11.424;2023-02-04T15:24:28;4.40;99.90
21563;DHT22;10942;47.894;11.424;2023-02-04T15:26:55;4.40;99.90
21563;DHT22;10942;47.894;11.424;2023-02-04T15:29:20;4.40;99.90
21563;DHT22;10942;47.894;11.424;2023-02-04T15:31:46;4.30;99.90
21563;DHT22;10942;47.894;11.424;2023-02-04T15:34:12;4.30;99.90
21563;DHT22;10942;47.894;11.424;2023-02-04T15:36:38;4.20;99.90
21563;DHT22;10942;47.894;11.424;2023-02-04T15:39:04;4.30;99.90
21563;DHT22;10942;47.894;11.424;2023-02-04T15:41:29;4.30;99.90
21563;DHT22;10942;47.894;11.424;2023-02-04T15:43:55;4.30;99.90
21563;DHT22;10942;47.894;11.424;2023-02-04T15:46:21;4.20;99.90
21563;DHT22;10942;47.894;11.424;2023-02-04T15:48:46;4.30;99.90
21563;DHT22;10942;47.894;11.424;2023-02-04T15:51:13;4.20;99.90
21563;DHT22;10942;47.894;11.424;2023-02-04T15:53:39;4.20;99.90
21563;DHT22;10942;47.894;11.424;2023-02-04T15:56:05;4.20;99.90